| time (UTC) | temp C | wind direction | speed KPH | gust KPH | rain 1hr cm | rain 24hr cm | rain mn cm | humidity % | barometer mb |
| 20260503032758 | 12 | 89 | 9.7 | 11.3 | 0.00 | 0.00 | 0.00 | 47 | 1018.7 |
| 20260503032257 | 12 | 92 | 9.7 | 9.7 | 0.00 | 0.00 | 0.00 | 46 | 1018.6 |
| 20260503031753 | 12 | 81 | 8.0 | 9.7 | 0.00 | 0.00 | 0.00 | 45 | 1018.5 |
| 20260503031252 | 13 | 79 | 9.7 | 9.7 | 0.00 | 0.00 | 0.00 | 45 | 1018.5 |
| 20260503030747 | 13 | 83 | 9.7 | 12.9 | 0.00 | 0.00 | 0.00 | 44 | 1018.6 |
| 20260503030244 | 13 | 91 | 9.7 | 12.9 | 0.00 | 0.00 | 0.00 | 44 | 1018.5 |
| 20260503025741 | 13 | 84 | 9.7 | 11.3 | 0.00 | 0.00 | 0.00 | 44 | 1018.5 |
| 20260503025238 | 13 | 75 | 11.3 | 16.1 | 0.00 | 0.00 | 0.00 | 43 | 1018.4 |
| 20260503024735 | 13 | 67 | 12.9 | 14.5 | 0.00 | 0.00 | 0.00 | 43 | 1018.6 |
| 20260503024232 | 13 | 73 | 9.7 | 9.7 | 0.00 | 0.00 | 0.00 | 43 | 1018.3 |
| 20260503023729 | 13 | 88 | 9.7 | 11.3 | 0.00 | 0.00 | 0.00 | 43 | 1018.3 |
| 20260503023226 | 15 | 77 | 11.3 | 11.3 | 0.00 | 0.00 | 0.00 | 41 | 1018.3 |
| 20260503022722 | 15 | 59 | 11.3 | 11.3 | 0.00 | 0.00 | 0.00 | 41 | 1018.2 |
| 20260503022222 | 15 | 66 | 9.7 | 11.3 | 0.00 | 0.00 | 0.00 | 39 | 1018.3 |
| 20260503021719 | 15 | 53 | 9.7 | 11.3 | 0.00 | 0.00 | 0.00 | 39 | 1018.3 |
| 20260503021215 | 15 | 73 | 6.4 | 9.7 | 0.00 | 0.00 | 0.00 | 40 | 1018.4 |
| 20260503020713 | 15 | 89 | 6.4 | 9.7 | 0.00 | 0.00 | 0.00 | 39 | 1018.4 |
| 20260503020210 | 15 | 82 | 8.0 | 11.3 | 0.00 | 0.00 | 0.00 | 39 | 1018.2 |
| 20260503015707 | 16 | 76 | 8.0 | 9.7 | 0.00 | 0.00 | 0.00 | 38 | 1018.2 |
| 20260503015204 | 16 | 74 | 9.7 | 12.9 | 0.00 | 0.00 | 0.00 | 37 | 1018.5 |
| 20260503014700 | 17 | 61 | 9.7 | 9.7 | 0.00 | 0.00 | 0.00 | 36 | 1018.3 |
| 20260503014158 | 17 | 42 | 8.0 | 8.0 | 0.00 | 0.00 | 0.00 | 36 | 1018.3 |
| 20260503013655 | 17 | 35 | 8.0 | 9.7 | 0.00 | 0.00 | 0.00 | 36 | 1018.4 |
| 20260503013153 | 18 | 24 | 9.7 | 11.3 | 0.00 | 0.00 | 0.00 | 34 | 1018.4 |
| 20260503012649 | 18 | 49 | 8.0 | 12.9 | 0.00 | 0.00 | 0.00 | 35 | 1018.3 |
| 20260503012146 | 18 | 64 | 3.2 | 6.4 | 0.00 | 0.00 | 0.00 | 35 | 1018.5 |
| 20260503011643 | 18 | 36 | 6.4 | 9.7 | 0.00 | 0.00 | 0.00 | 35 | 1018.5 |
| 20260503011140 | 18 | 49 | 0.0 | 4.8 | 0.00 | 0.00 | 0.00 | 34 | 1018.5 |
| 20260503010636 | 18 | 322 | 6.4 | 8.0 | 0.00 | 0.00 | 0.00 | 35 | 1018.5 |
| 20260503010134 | 18 | 294 | 6.4 | 6.4 | 0.00 | 0.00 | 0.00 | 35 | 1018.5 |
| 20260503005631 | 17 | 7 | 3.2 | 6.4 | 0.00 | 0.00 | 0.00 | 35 | 1018.7 |
| 20260503005128 | 18 | 354 | 4.8 | 6.4 | 0.00 | 0.00 | 0.00 | 36 | 1018.5 |
| 20260503004624 | 18 | 325 | 3.2 | 6.4 | 0.00 | 0.00 | 0.00 | 35 | 1018.7 |
| 20260503004123 | 18 | 267 | 6.4 | 9.7 | 0.00 | 0.00 | 0.00 | 35 | 1018.7 |
| 20260503003619 | 17 | 359 | 1.6 | 8.0 | 0.00 | 0.00 | 0.00 | 35 | 1019.0 |
| 20260503003116 | 17 | 250 | 6.4 | 8.0 | 0.00 | 0.00 | 0.00 | 35 | 1019.1 |
| 20260503002613 | 18 | 310 | 8.0 | 9.7 | 0.00 | 0.00 | 0.00 | 35 | 1019.1 |
| 20260503002110 | 17 | 21 | 3.2 | 9.7 | 0.00 | 0.00 | 0.00 | 35 | 1018.8 |
| 20260503001606 | 17 | 359 | 4.8 | 8.0 | 0.00 | 0.00 | 0.00 | 35 | 1019.1 |
| 20260503001103 | 17 | 0 | 4.8 | 9.7 | 0.00 | 0.00 | 0.00 | 36 | 1019.1 |
| 20260503000600 | 18 | 351 | 6.4 | 11.3 | 0.00 | 0.00 | 0.00 | 35 | 1019.2 |
| 20260503000057 | 18 | 84 | 3.2 | 6.4 | 0.00 | 0.00 | 0.00 | 35 | 1019.1 |
| 20260502235554 | 18 | 105 | 4.8 | 6.4 | 0.00 | 0.00 | 0.00 | 35 | 1019.1 |
| 20260502235052 | 18 | 168 | 4.8 | 11.3 | 0.00 | 0.00 | 0.00 | 34 | 1019.2 |
| 20260502234548 | 18 | 308 | 4.8 | 8.0 | 0.00 | 0.00 | 0.00 | 35 | 1019.2 |
| 20260502234046 | 17 | 174 | 3.2 | 19.3 | 0.00 | 0.00 | 0.00 | 35 | 1019.3 |
| 20260502233546 | 18 | 197 | 6.4 | 11.3 | 0.00 | 0.00 | 0.00 | 34 | 1019.2 |
| 20260502233043 | 19 | 279 | 16.1 | 19.3 | 0.00 | 0.00 | 0.00 | 33 | 1019.2 |
| 20260502232539 | 19 | 284 | 6.4 | 14.5 | 0.00 | 0.00 | 0.00 | 34 | 1019.4 |
| 20260502232037 | 18 | 145 | 3.2 | 8.0 | 0.00 | 0.00 | 0.00 | 35 | 1019.5 |
| 20260502231534 | 20 | 269 | 9.7 | 12.9 | 0.00 | 0.00 | 0.00 | 33 | 1019.5 |
| 20260502231032 | 18 | 44 | 3.2 | 12.9 | 0.00 | 0.00 | 0.00 | 34 | 1019.6 |
| 20260502230530 | 19 | 258 | 14.5 | 17.7 | 0.00 | 0.00 | 0.00 | 33 | 1019.6 |
| 20260502230028 | 19 | 288 | 12.9 | 20.9 | 0.00 | 0.00 | 0.00 | 33 | 1019.6 |
| 20260502225522 | 19 | 247 | 6.4 | 8.0 | 0.00 | 0.00 | 0.00 | 33 | 1019.7 |
| 20260502225020 | 18 | 267 | 9.7 | 19.3 | 0.00 | 0.00 | 0.00 | 34 | 1019.6 |
| 20260502224516 | 19 | 293 | 14.5 | 17.7 | 0.00 | 0.00 | 0.00 | 34 | 1019.8 |
| 20260502224013 | 19 | 277 | 4.8 | 9.7 | 0.00 | 0.00 | 0.00 | 34 | 1019.9 |
| 20260502223511 | 20 | 237 | 4.8 | 6.4 | 0.00 | 0.00 | 0.00 | 34 | 1019.9 |
| 20260502223009 | 18 | 13 | 9.7 | 17.7 | 0.00 | 0.00 | 0.00 | 36 | 1020.2 |
| 20260502222506 | 18 | 25 | 3.2 | 6.4 | 0.00 | 0.00 | 0.00 | 35 | 1020.1 |
| 20260502222002 | 18 | 177 | 1.6 | 9.7 | 0.00 | 0.00 | 0.00 | 35 | 1020.1 |
| 20260502221458 | 18 | 354 | 6.4 | 6.4 | 0.00 | 0.00 | 0.00 | 35 | 1020.3 |
| 20260502220955 | 18 | 238 | 12.9 | 17.7 | 0.00 | 0.00 | 0.00 | 36 | 1020.4 |
| 20260502220450 | 17 | 236 | 6.4 | 12.9 | 0.00 | 0.00 | 0.00 | 37 | 1020.5 |
| 20260502215948 | 17 | 301 | 12.9 | 24.1 | 0.00 | 0.00 | 0.00 | 37 | 1020.6 |
| 20260502215445 | 18 | 355 | 12.9 | 12.9 | 0.00 | 0.00 | 0.00 | 35 | 1020.6 |
| 20260502214942 | 18 | 317 | 14.5 | 32.2 | 0.00 | 0.00 | 0.00 | 36 | 1020.6 |
| 20260502214438 | 17 | 330 | 4.8 | 12.9 | 0.00 | 0.00 | 0.00 | 38 | 1020.6 |
| 20260502213936 | 18 | 27 | 3.2 | 8.0 | 0.00 | 0.00 | 0.00 | 37 | 1020.6 |
| 20260502213432 | 17 | 223 | 8.0 | 17.7 | 0.00 | 0.00 | 0.00 | 37 | 1020.9 |
| 20260502212931 | 18 | 104 | 3.2 | 14.5 | 0.00 | 0.00 | 0.00 | 36 | 1020.8 |
| 20260502212430 | 17 | 283 | 14.5 | 22.5 | 0.00 | 0.00 | 0.00 | 38 | 1020.8 |
| 20260502211926 | 17 | 344 | 4.8 | 6.4 | 0.00 | 0.00 | 0.00 | 37 | 1020.9 |
| 20260502211422 | 17 | 231 | 3.2 | 24.1 | 0.00 | 0.00 | 0.00 | 38 | 1021.2 |
| 20260502210920 | 18 | 291 | 3.2 | 12.9 | 0.00 | 0.00 | 0.00 | 37 | 1021.0 |
| 20260502210417 | 17 | 149 | 4.8 | 9.7 | 0.00 | 0.00 | 0.00 | 38 | 1021.3 |
| 20260502205914 | 17 | 23 | 1.6 | 4.8 | 0.00 | 0.00 | 0.00 | 39 | 1021.4 |
| 20260502205410 | 17 | 28 | 11.3 | 20.9 | 0.00 | 0.00 | 0.00 | 39 | 1021.5 |
| 20260502204908 | 16 | 21 | 4.8 | 25.7 | 0.00 | 0.00 | 0.00 | 39 | 1021.3 |
| 20260502204404 | 17 | 343 | 12.9 | 17.7 | 0.00 | 0.00 | 0.00 | 39 | 1021.4 |
| 20260502203902 | 17 | 312 | 12.9 | 22.5 | 0.00 | 0.00 | 0.00 | 38 | 1021.4 |
| 20260502203359 | 17 | 284 | 19.3 | 19.3 | 0.00 | 0.00 | 0.00 | 38 | 1021.5 |
| 20260502202855 | 16 | 334 | 4.8 | 11.3 | 0.00 | 0.00 | 0.00 | 40 | 1021.4 |
| 20260502202352 | 17 | 351 | 6.4 | 19.3 | 0.00 | 0.00 | 0.00 | 40 | 1021.4 |
| 20260502201850 | 17 | 46 | 16.1 | 19.3 | 0.00 | 0.00 | 0.00 | 39 | 1021.5 |
| 20260502201346 | 17 | 25 | 9.7 | 17.7 | 0.00 | 0.00 | 0.00 | 39 | 1021.6 |
| 20260502200842 | 17 | 0 | 12.9 | 14.5 | 0.00 | 0.00 | 0.00 | 41 | 1021.9 |
| 20260502200338 | 16 | 59 | 9.7 | 12.9 | 0.00 | 0.00 | 0.00 | 42 | 1021.6 |
| 20260502195836 | 16 | 57 | 17.7 | 22.5 | 0.00 | 0.00 | 0.00 | 43 | 1021.8 |
| 20260502195333 | 16 | 11 | 9.7 | 22.5 | 0.00 | 0.00 | 0.00 | 43 | 1021.8 |
| 20260502194830 | 16 | 50 | 20.9 | 25.7 | 0.00 | 0.00 | 0.00 | 42 | 1022.0 |
| 20260502194326 | 15 | 20 | 6.4 | 20.9 | 0.00 | 0.00 | 0.00 | 44 | 1022.3 |
| 20260502193822 | 16 | 30 | 16.1 | 22.5 | 0.00 | 0.00 | 0.00 | 43 | 1021.9 |
| 20260502193320 | 15 | 48 | 17.7 | 29.0 | 0.00 | 0.00 | 0.00 | 44 | 1022.2 |
| 20260502192815 | 15 | 22 | 20.9 | 30.6 | 0.00 | 0.00 | 0.00 | 44 | 1022.2 |
| 20260502192313 | 15 | 10 | 14.5 | 27.4 | 0.00 | 0.00 | 0.00 | 43 | 1022.3 |
| 20260502191810 | 16 | 27 | 22.5 | 24.1 | 0.00 | 0.00 | 0.00 | 42 | 1022.2 |
| 20260502191308 | 16 | 37 | 27.4 | 32.2 | 0.00 | 0.00 | 0.00 | 42 | 1022.2 |
| 20260502190805 | 15 | 49 | 24.1 | 25.7 | 0.00 | 0.00 | 0.00 | 41 | 1022.4 |
| 20260502190302 | 16 | 48 | 30.6 | 30.6 | 0.00 | 0.00 | 0.00 | 41 | 1022.5 |
| 20260502185757 | 15 | 345 | 17.7 | 20.9 | 0.00 | 0.00 | 0.00 | 41 | 1022.5 |
| 20260502185253 | 16 | 71 | 19.3 | 32.2 | 0.00 | 0.00 | 0.00 | 41 | 1022.3 |
| 20260502184750 | 16 | 14 | 20.9 | 29.0 | 0.00 | 0.00 | 0.00 | 41 | 1022.6 |
| 20260502184245 | 16 | 35 | 20.9 | 25.7 | 0.00 | 0.00 | 0.00 | 41 | 1022.3 |
| 20260502183743 | 15 | 14 | 16.1 | 30.6 | 0.00 | 0.00 | 0.00 | 42 | 1022.4 |
| 20260502183238 | 16 | 46 | 19.3 | 30.6 | 0.00 | 0.00 | 0.00 | 42 | 1022.5 |
| 20260502182734 | 15 | 358 | 12.9 | 24.1 | 0.00 | 0.00 | 0.00 | 42 | 1022.6 |
| 20260502182230 | 16 | 27 | 12.9 | 25.7 | 0.00 | 0.00 | 0.00 | 42 | 1022.6 |
| 20260502181726 | 16 | 35 | 29.0 | 32.2 | 0.00 | 0.00 | 0.00 | 42 | 1022.8 |
| 20260502181220 | 16 | 43 | 19.3 | 32.2 | 0.00 | 0.00 | 0.00 | 42 | 1022.6 |
| 20260502180716 | 16 | 31 | 14.5 | 24.1 | 0.00 | 0.00 | 0.00 | 42 | 1022.6 |
| 20260502180214 | 16 | 22 | 25.7 | 30.6 | 0.00 | 0.00 | 0.00 | 42 | 1022.6 |
| 20260502170132 | 15 | 39 | 14.5 | 24.1 | 0.00 | 0.00 | 0.00 | 41 | 1022.7 |
| 20260502164119 | 16 | 34 | 24.1 | 35.4 | 0.00 | 0.00 | 0.00 | 40 | 1022.8 |
| 20260502163615 | 16 | 357 | 16.1 | 29.0 | 0.00 | 0.00 | 0.00 | 40 | 1022.6 |
| 20260502163111 | 16 | 41 | 14.5 | 29.0 | 0.00 | 0.00 | 0.00 | 41 | 1022.8 |
| 20260502162608 | 15 | 33 | 11.3 | 30.6 | 0.00 | 0.00 | 0.00 | 43 | 1022.7 |
| 20260502162106 | 16 | 53 | 17.7 | 27.4 | 0.00 | 0.00 | 0.00 | 42 | 1022.6 |
| 20260502161603 | 16 | 57 | 20.9 | 22.5 | 0.00 | 0.00 | 0.00 | 41 | 1022.7 |
| 20260502161100 | 15 | 40 | 30.6 | 33.8 | 0.00 | 0.00 | 0.00 | 42 | 1022.6 |
| 20260502160558 | 15 | 34 | 25.7 | 32.2 | 0.00 | 0.00 | 0.00 | 42 | 1022.7 |
| 20260502152011 | 14 | 40 | 22.5 | 30.6 | 0.00 | 0.00 | 0.00 | 44 | 1022.7 |
| 20260502151507 | 14 | 48 | 24.1 | 30.6 | 0.00 | 0.00 | 0.00 | 44 | 1022.4 |
| 20260502151005 | 15 | 44 | 27.4 | 30.6 | 0.00 | 0.00 | 0.00 | 43 | 1022.5 |
| 20260502150502 | 14 | 55 | 22.5 | 30.6 | 0.00 | 0.00 | 0.00 | 43 | 1022.4 |
| 20260502130341 | 10 | 43 | 25.7 | 38.6 | 0.00 | 0.00 | 0.00 | 53 | 1021.4 |
| 20260502123324 | 9 | 40 | 30.6 | 41.8 | 0.00 | 0.00 | 0.00 | 55 | 1021.2 |
| 20260502122821 | 8 | 38 | 33.8 | 38.6 | 0.00 | 0.00 | 0.00 | 56 | 1021.3 |
| 20260502122316 | 8 | 45 | 29.0 | 38.6 | 0.00 | 0.00 | 0.00 | 56 | 1021.0 |
| 20260502121815 | 8 | 51 | 29.0 | 38.6 | 0.00 | 0.00 | 0.00 | 56 | 1021.0 |
| 20260502121312 | 8 | 53 | 29.0 | 41.8 | 0.00 | 0.00 | 0.00 | 56 | 1021.2 |
| 20260502120809 | 8 | 43 | 20.9 | 35.4 | 0.00 | 0.00 | 0.00 | 56 | 1020.9 |
| 20260502120305 | 8 | 45 | 29.0 | 37.0 | 0.00 | 0.00 | 0.00 | 56 | 1020.9 |
| 20260502115803 | 8 | 51 | 33.8 | 38.6 | 0.00 | 0.00 | 0.00 | 56 | 1020.8 |
| 20260502115300 | 8 | 51 | 29.0 | 37.0 | 0.00 | 0.00 | 0.00 | 56 | 1020.9 |
| 20260502114756 | 8 | 42 | 30.6 | 40.2 | 0.00 | 0.00 | 0.00 | 56 | 1020.6 |
| 20260502114253 | 8 | 41 | 33.8 | 40.2 | 0.00 | 0.00 | 0.00 | 56 | 1020.6 |
| 20260502113750 | 8 | 44 | 33.8 | 45.1 | 0.00 | 0.00 | 0.00 | 55 | 1020.7 |
| 20260502113248 | 8 | 43 | 37.0 | 41.8 | 0.00 | 0.00 | 0.00 | 54 | 1020.5 |
| 20260502112746 | 8 | 40 | 38.6 | 45.1 | 0.00 | 0.00 | 0.00 | 54 | 1020.5 |
| 20260502112243 | 8 | 45 | 24.1 | 43.5 | 0.00 | 0.00 | 0.00 | 53 | 1020.3 |
| 20260502111740 | 9 | 52 | 37.0 | 40.2 | 0.00 | 0.00 | 0.00 | 53 | 1020.2 |
| 20260502111238 | 8 | 51 | 40.2 | 46.7 | 0.00 | 0.00 | 0.00 | 53 | 1020.3 |
| 20260502110735 | 8 | 48 | 27.4 | 41.8 | 0.00 | 0.00 | 0.00 | 53 | 1019.9 |
| 20260502110233 | 8 | 53 | 30.6 | 37.0 | 0.00 | 0.00 | 0.00 | 52 | 1020.1 |
| 20260502105731 | 9 | 54 | 33.8 | 45.1 | 0.00 | 0.00 | 0.00 | 51 | 1019.8 |
| 20260502105226 | 9 | 49 | 33.8 | 41.8 | 0.00 | 0.00 | 0.00 | 51 | 1019.7 |
| 20260502104724 | 9 | 44 | 27.4 | 41.8 | 0.00 | 0.00 | 0.00 | 50 | 1019.7 |
| 20260502104222 | 9 | 48 | 27.4 | 41.8 | 0.00 | 0.00 | 0.00 | 49 | 1019.5 |
| 20260502103719 | 9 | 53 | 32.2 | 37.0 | 0.00 | 0.00 | 0.00 | 50 | 1019.6 |
| 20260502103217 | 9 | 56 | 30.6 | 33.8 | 0.00 | 0.00 | 0.00 | 50 | 1019.9 |
| 20260502102713 | 9 | 62 | 25.7 | 35.4 | 0.00 | 0.00 | 0.00 | 49 | 1019.5 |
| 20260502102210 | 9 | 64 | 25.7 | 33.8 | 0.00 | 0.00 | 0.00 | 49 | 1019.5 |
| 20260502101708 | 8 | 53 | 25.7 | 33.8 | 0.00 | 0.00 | 0.00 | 49 | 1019.2 |
| 20260502101206 | 8 | 45 | 25.7 | 33.8 | 0.00 | 0.00 | 0.00 | 49 | 1019.5 |
| 20260502100704 | 9 | 46 | 22.5 | 30.6 | 0.00 | 0.00 | 0.00 | 48 | 1019.2 |
| 20260502100202 | 10 | 54 | 22.5 | 30.6 | 0.00 | 0.00 | 0.00 | 47 | 1019.2 |
| 20260502091136 | 12 | 53 | 19.3 | 27.4 | 0.00 | 0.00 | 0.00 | 39 | 1018.7 |
| 20260502090633 | 12 | 51 | 24.1 | 29.0 | 0.00 | 0.00 | 0.00 | 38 | 1018.7 |
| 20260502090131 | 11 | 55 | 33.8 | 35.4 | 0.00 | 0.00 | 0.00 | 38 | 1018.8 |
| 20260502071533 | 13 | 52 | 16.1 | 20.9 | 0.00 | 0.00 | 0.00 | 32 | 1018.1 |
| 20260502071031 | 12 | 53 | 14.5 | 19.3 | 0.00 | 0.00 | 0.00 | 33 | 1018.1 |
| 20260502070529 | 12 | 52 | 17.7 | 20.9 | 0.00 | 0.00 | 0.00 | 33 | 1018.1 |
| 20260502070027 | 12 | 44 | 16.1 | 19.3 | 0.00 | 0.00 | 0.00 | 33 | 1018.0 |
| 20260502065526 | 13 | 58 | 14.5 | 19.3 | 0.00 | 0.00 | 0.00 | 32 | 1018.1 |
| 20260502065023 | 12 | 45 | 14.5 | 19.3 | 0.00 | 0.00 | 0.00 | 33 | 1018.2 |
| 20260502064521 | 13 | 37 | 20.9 | 27.4 | 0.00 | 0.00 | 0.00 | 31 | 1018.1 |
| 20260502064018 | 12 | 37 | 16.1 | 22.5 | 0.00 | 0.00 | 0.00 | 33 | 1018.1 |
| 20260502063515 | 13 | 43 | 20.9 | 24.1 | 0.00 | 0.00 | 0.00 | 32 | 1018.1 |
| 20260502063013 | 13 | 35 | 19.3 | 22.5 | 0.00 | 0.00 | 0.00 | 31 | 1017.9 |
| 20260502062509 | 13 | 22 | 17.7 | 24.1 | 0.00 | 0.00 | 0.00 | 33 | 1018.1 |
| 20260502062008 | 13 | 27 | 20.9 | 20.9 | 0.00 | 0.00 | 0.00 | 33 | 1018.1 |
| 20260502061506 | 12 | 36 | 19.3 | 22.5 | 0.00 | 0.00 | 0.00 | 34 | 1018.1 |
| 20260502061002 | 13 | 7 | 11.3 | 16.1 | 0.00 | 0.00 | 0.00 | 32 | 1018.1 |
| 20260502060457 | 14 | 347 | 11.3 | 19.3 | 0.00 | 0.00 | 0.00 | 32 | 1017.9 |
| 20260502055954 | 13 | 0 | 14.5 | 17.7 | 0.00 | 0.00 | 0.00 | 32 | 1018.1 |
| 20260502055452 | 14 | 357 | 14.5 | 17.7 | 0.00 | 0.00 | 0.00 | 32 | 1018.0 |
| 20260502054947 | 13 | 353 | 16.1 | 20.9 | 0.00 | 0.00 | 0.00 | 32 | 1018.1 |
| 20260502054444 | 13 | 6 | 16.1 | 19.3 | 0.00 | 0.00 | 0.00 | 33 | 1018.0 |
| 20260502053941 | 13 | 3 | 16.1 | 19.3 | 0.00 | 0.00 | 0.00 | 32 | 1018.0 |
| 20260502053438 | 14 | 359 | 20.9 | 22.5 | 0.00 | 0.00 | 0.00 | 31 | 1018.1 |
| 20260502052936 | 14 | 355 | 19.3 | 24.1 | 0.00 | 0.00 | 0.00 | 31 | 1018.1 |
| 20260502052434 | 13 | 353 | 17.7 | 20.9 | 0.00 | 0.00 | 0.00 | 31 | 1018.1 |
| 20260502051932 | 15 | 354 | 20.9 | 24.1 | 0.00 | 0.00 | 0.00 | 30 | 1017.9 |
| 20260502051430 | 15 | 349 | 17.7 | 24.1 | 0.00 | 0.00 | 0.00 | 30 | 1017.9 |
| 20260502050927 | 14 | 347 | 16.1 | 20.9 | 0.00 | 0.00 | 0.00 | 30 | 1017.7 |
| 20260502050423 | 14 | 351 | 12.9 | 17.7 | 0.00 | 0.00 | 0.00 | 30 | 1018.1 |
| 20260502045920 | 13 | 359 | 16.1 | 20.9 | 0.00 | 0.00 | 0.00 | 30 | 1017.9 |
| 20260502045417 | 13 | 0 | 16.1 | 17.7 | 0.00 | 0.00 | 0.00 | 30 | 1018.1 |
| 20260502044914 | 13 | 357 | 14.5 | 17.7 | 0.00 | 0.00 | 0.00 | 31 | 1018.1 |
| 20260502044409 | 12 | 354 | 9.7 | 14.5 | 0.00 | 0.00 | 0.00 | 31 | 1018.0 |
| 20260502043907 | 12 | 16 | 9.7 | 14.5 | 0.00 | 0.00 | 0.00 | 31 | 1018.1 |
| 20260502043405 | 12 | 8 | 9.7 | 14.5 | 0.00 | 0.00 | 0.00 | 30 | 1018.0 |
| 20260502042904 | 12 | 12 | 11.3 | 14.5 | 0.00 | 0.00 | 0.00 | 30 | 1018.0 |
| 20260502042401 | 13 | 10 | 11.3 | 16.1 | 0.00 | 0.00 | 0.00 | 28 | 1018.1 |
| 20260502041858 | 13 | 9 | 12.9 | 14.5 | 0.00 | 0.00 | 0.00 | 28 | 1017.9 |
| 20260502041356 | 13 | 20 | 11.3 | 12.9 | 0.00 | 0.00 | 0.00 | 29 | 1018.0 |
| 20260502040853 | 13 | 5 | 9.7 | 14.5 | 0.00 | 0.00 | 0.00 | 28 | 1018.1 |
| 20260502040350 | 13 | 15 | 9.7 | 12.9 | 0.00 | 0.00 | 0.00 | 28 | 1018.1 |
| 20260502035846 | 13 | 10 | 11.3 | 12.9 | 0.00 | 0.00 | 0.00 | 27 | 1017.9 |
| 20260502035343 | 13 | 26 | 9.7 | 12.9 | 0.00 | 0.00 | 0.00 | 28 | 1018.0 |
| 20260502034840 | 13 | 23 | 9.7 | 11.3 | 0.00 | 0.00 | 0.00 | 28 | 1018.0 |
| 20260502034338 | 13 | 22 | 9.7 | 9.7 | 0.00 | 0.00 | 0.00 | 27 | 1017.6 |
| 20260502033837 | 13 | 16 | 8.0 | 12.9 | 0.00 | 0.00 | 0.00 | 27 | 1018.0 |
| 20260502033334 | 14 | 11 | 9.7 | 12.9 | 0.00 | 0.00 | 0.00 | 26 | 1017.9 |